KEAU/EAU METAR and TAF weather

Enter ICAO airport designator
Station Type Date Time Source
KEAU METAR 2020/04/08 21:56 UTC NOAA

KEAU 082156Z 30014G24KT 10SM FEW120 12/M07 A2973 RMK AO2 PK WND 29031/2139 SLP072 T01221072


Station Type Date Time Source
KEAU Decoded METAR 2020/04/08 21:56 UTC NOAA

EAU CLAIRE CHIPPEWA VALLEY, WI, United States (KEAU) 44-52N 091-29W
Apr 08, 2020 - 05:56 PM EDT / 2020.04.08 2156 UTC
Wind: from the WNW (300 degrees) at 16 MPH (14 KT) gusting to 28 MPH (24 KT):0
Visibility: 10 mile(s):0
Sky conditions: mostly clear
Temperature: 54.0 F (12.2 C)
Dew Point: 19.0 F (-7.2 C)
Relative Humidity: 25%
Pressure (altimeter): 29.73 in. Hg (1006 hPa)
ob: KEAU 082156Z 30014G24KT 10SM FEW120 12/M07 A2973 RMK AO2 PK WND 29031/2139 SLP072 T01221072
cycle: 22

Station Type Date Time Source
KEAU TAF 2020/04/08 18:22 UTC NOAA

TAF KEAU 081720Z 0818/0918 29009KT P6SM OVC090
FM082200 30018G29KT P6SM SCT200
FM090200 29012G20KT P6SM SCT100
FM091500 30017G28KT P6SM BKN045

Example: see airport list